Time;durP1;ratioP1;P1;durP2;ratioP2;P2;SDS_P1;SDS_P2;PMS_P1;PMS_P2;Temp;Humidity;BMP_temperature;BMP_pressure;BME280_temperature;BME280_humidity;BME280_pressure;Samples;Min_cycle;Max_cycle;Signal;HPM_P1;HPM_P2
2021/04/15 00:02:18;;;;;;;9.70;8.17;;;;;;;;;;5018723;28;20184;-78
2021/04/15 00:04:43;;;;;;;9.63;8.00;;;;;;;;;;5036058;28;20200;-79
2021/04/15 00:07:08;;;;;;;9.40;8.40;;;;;;;;;;5036132;28;20173;-79
2021/04/15 00:09:34;;;;;;;11.37;8.30;;;;;;;;;;5036612;28;20164;-79
2021/04/15 00:11:59;;;;;;;9.63;7.60;;;;;;;;;;5036044;28;20169;-79
2021/04/15 00:14:24;;;;;;;9.17;8.27;;;;;;;;;;5036548;28;20180;-79
2021/04/15 00:16:50;;;;;;;9.40;8.37;;;;;;;;;;5036195;28;20227;-79
2021/04/15 00:19:18;;;;;;;17.73;15.23;;;;;;;;;;5035811;28;20205;-79
2021/04/15 00:21:43;;;;;;;23.47;11.63;;;;;;;;;;5035212;28;20575;-79
2021/04/15 00:24:09;;;;;;;12.03;9.07;;;;;;;;;;5035971;28;20239;-79
2021/04/15 00:26:34;;;;;;;8.90;7.80;;;;;;;;;;5036278;28;20169;-79
2021/04/15 00:29:00;;;;;;;15.87;9.87;;;;;;;;;;5035946;28;20172;-79
2021/04/15 00:31:26;;;;;;;11.87;8.60;;;;;;;;;;5035625;28;20169;-79
2021/04/15 00:33:52;;;;;;;12.97;9.37;;;;;;;;;;5036169;28;20698;-79
2021/04/15 00:36:19;;;;;;;18.70;10.77;;;;;;;;;;5035712;28;20207;-79
2021/04/15 00:38:45;;;;;;;18.53;10.47;;;;;;;;;;5035435;28;20232;-79
2021/04/15 00:41:11;;;;;;;13.80;8.93;;;;;;;;;;5035755;28;20172;-79
2021/04/15 00:43:41;;;;;;;14.57;9.40;;;;;;;;;;5035654;28;20172;-79
2021/04/15 00:46:15;;;;;;;11.37;8.77;;;;;;;;;;5035612;28;20551;-79
2021/04/15 00:48:42;;;;;;;12.60;9.17;;;;;;;;;;5035269;28;20168;-79
2021/04/15 00:51:07;;;;;;;14.13;9.93;;;;;;;;;;5036041;28;20263;-79
2021/04/15 00:53:36;;;;;;;10.50;7.87;;;;;;;;;;5036009;28;20260;-79
2021/04/15 00:56:02;;;;;;;9.87;8.87;;;;;;;;;;5035434;28;20180;-79
2021/04/15 00:58:28;;;;;;;11.80;10.70;;;;;;;;;;5035688;28;20519;-79
2021/04/15 01:00:53;;;;;;;12.03;10.93;;;;;;;;;;5035365;28;20170;-79
2021/04/15 01:03:18;;;;;;;21.47;11.77;;;;;;;;;;5035011;28;20179;-79
2021/04/15 01:05:45;;;;;;;16.80;11.03;;;;;;;;;;5034906;28;20200;-79
2021/04/15 01:08:10;;;;;;;11.13;8.97;;;;;;;;;;5035249;28;20173;-79
2021/04/15 01:10:43;;;;;;;10.87;9.17;;;;;;;;;;5035086;28;20177;-79
2021/04/15 01:13:09;;;;;;;11.63;10.23;;;;;;;;;;5035918;28;20185;-79
2021/04/15 01:15:34;;;;;;;23.40;12.37;;;;;;;;;;5035093;28;20168;-79
2021/04/15 01:18:05;;;;;;;15.93;9.53;;;;;;;;;;5035596;28;20200;-79
2021/04/15 01:21:03;;;;;;;8.87;7.70;;;;;;;;;;5034641;28;20172;-80
2021/04/15 01:23:34;;;;;;;10.47;9.37;;;;;;;;;;5035237;28;20658;-79
2021/04/15 01:25:59;;;;;;;10.33;9.33;;;;;;;;;;5035228;28;20185;-79
2021/04/15 01:28:35;;;;;;;11.50;9.47;;;;;;;;;;5034628;28;20214;-79
2021/04/15 01:31:13;;;;;;;11.80;8.87;;;;;;;;;;5035511;28;20534;-79
2021/04/15 01:33:46;;;;;;;11.50;8.90;;;;;;;;;;5033835;28;20161;-79
2021/04/15 01:36:24;;;;;;;7.77;7.00;;;;;;;;;;5035008;28;20179;-79
2021/04/15 01:38:51;;;;;;;15.27;13.77;;;;;;;;;;5034958;28;20228;-79
2021/04/15 01:41:22;;;;;;;9.70;8.70;;;;;;;;;;5034650;28;20188;-79
2021/04/15 01:43:54;;;;;;;15.10;10.27;;;;;;;;;;5035037;28;20176;-79
2021/04/15 01:46:21;;;;;;;7.70;6.93;;;;;;;;;;5034582;28;20180;-79
2021/04/15 01:48:51;;;;;;;11.13;8.83;;;;;;;;;;5034814;28;20179;-79
2021/04/15 01:51:21;;;;;;;9.17;8.10;;;;;;;;;;5034189;28;20165;-79
2021/04/15 01:53:47;;;;;;;10.60;9.50;;;;;;;;;;5034054;28;20294;-79
2021/04/15 01:56:32;;;;;;;9.10;8.27;;;;;;;;;;5034595;28;20516;-79
2021/04/15 01:59:00;;;;;;;8.67;7.40;;;;;;;;;;5034639;28;20736;-79
2021/04/15 02:01:26;;;;;;;9.97;7.67;;;;;;;;;;5034556;28;20615;-79
2021/04/15 02:03:55;;;;;;;11.00;8.00;;;;;;;;;;5034491;28;20164;-79
2021/04/15 02:06:26;;;;;;;8.87;7.10;;;;;;;;;;5034620;28;20551;-79
2021/04/15 02:09:03;;;;;;;9.53;8.63;;;;;;;;;;5033958;28;20562;-79
2021/04/15 02:11:39;;;;;;;8.20;7.27;;;;;;;;;;5034479;28;20540;-79
2021/04/15 02:14:06;;;;;;;11.30;7.87;;;;;;;;;;5034459;28;20172;-79
2021/04/15 02:16:33;;;;;;;13.10;8.53;;;;;;;;;;5034392;28;20484;-79
2021/04/15 02:19:02;;;;;;;9.70;7.70;;;;;;;;;;5033795;28;20172;-79
2021/04/15 02:21:33;;;;;;;10.67;8.40;;;;;;;;;;5033730;28;20251;-79
2021/04/15 02:24:02;;;;;;;8.20;7.40;;;;;;;;;;5041105;28;20175;-79
2021/04/15 02:26:33;;;;;;;7.93;7.13;;;;;;;;;;5058714;28;20172;-79
2021/04/15 02:29:03;;;;;;;9.63;7.37;;;;;;;;;;5054053;28;20519;-79
2021/04/15 02:31:33;;;;;;;9.70;7.20;;;;;;;;;;5037269;28;20176;-79
2021/04/15 02:34:06;;;;;;;8.67;7.23;;;;;;;;;;5037079;28;20182;-79
2021/04/15 02:36:43;;;;;;;10.20;8.30;;;;;;;;;;5033782;28;20179;-79
2021/04/15 02:39:10;;;;;;;7.70;7.00;;;;;;;;;;5033604;28;20339;-79
2021/04/15 02:41:37;;;;;;;8.23;7.20;;;;;;;;;;5033585;28;20173;-79
2021/04/15 02:44:06;;;;;;;7.93;7.07;;;;;;;;;;5033727;28;20642;-79
2021/04/15 02:46:38;;;;;;;7.53;6.47;;;;;;;;;;5038297;28;20627;-79
2021/04/15 02:49:05;;;;;;;6.33;5.73;;;;;;;;;;5038101;28;20263;-79
2021/04/15 02:51:32;;;;;;;6.53;5.93;;;;;;;;;;5038025;28;20173;-79
2021/04/15 02:54:03;;;;;;;6.87;6.17;;;;;;;;;;5037731;28;20183;-79
2021/04/15 02:56:28;;;;;;;6.40;5.80;;;;;;;;;;5037968;28;20173;-79
2021/04/15 02:58:53;;;;;;;7.00;6.27;;;;;;;;;;5038210;28;20226;-79
2021/04/15 03:01:22;;;;;;;6.57;5.97;;;;;;;;;;5038278;28;20173;-79
2021/04/15 03:03:50;;;;;;;6.57;5.97;;;;;;;;;;5037384;28;20196;-79
2021/04/15 03:06:20;;;;;;;6.97;6.27;;;;;;;;;;5037819;28;20172;-79
2021/04/15 03:08:48;;;;;;;7.33;6.67;;;;;;;;;;5037483;28;20179;-80
2021/04/15 03:11:22;;;;;;;7.50;6.80;;;;;;;;;;5037322;28;20565;-79
2021/04/15 03:13:53;;;;;;;7.00;6.30;;;;;;;;;;5037466;28;20172;-79
2021/04/15 03:16:20;;;;;;;7.47;6.77;;;;;;;;;;5036071;28;20203;-79
2021/04/15 03:18:48;;;;;;;7.27;6.67;;;;;;;;;;5037705;28;20176;-78
2021/04/15 03:21:18;;;;;;;7.93;7.23;;;;;;;;;;5037577;28;20188;-79
2021/04/15 03:23:57;;;;;;;6.60;6.00;;;;;;;;;;5037201;28;20240;-79
2021/04/15 03:26:31;;;;;;;7.63;6.83;;;;;;;;;;5037183;28;20176;-79
2021/04/15 03:29:03;;;;;;;7.47;6.77;;;;;;;;;;5037668;28;20171;-79
2021/04/15 03:31:30;;;;;;;7.20;6.60;;;;;;;;;;5037631;28;20171;-79
2021/04/15 03:34:02;;;;;;;9.03;7.80;;;;;;;;;;5037302;28;20709;-79
2021/04/15 03:36:27;;;;;;;9.33;8.00;;;;;;;;;;5037669;28;20220;-79
2021/04/15 03:38:59;;;;;;;9.53;8.53;;;;;;;;;;5037146;28;20581;-79
2021/04/15 03:41:45;;;;;;;8.30;7.60;;;;;;;;;;5036638;28;20583;-79
2021/04/15 03:44:16;;;;;;;8.77;7.87;;;;;;;;;;5036402;28;20255;-79
2021/04/15 03:46:44;;;;;;;7.80;7.10;;;;;;;;;;5036459;28;20523;-79
2021/04/15 03:49:10;;;;;;;7.77;6.83;;;;;;;;;;5036715;28;20184;-79
2021/04/15 03:51:43;;;;;;;6.93;6.33;;;;;;;;;;5036801;28;20611;-79
2021/04/15 03:54:14;;;;;;;7.73;7.03;;;;;;;;;;5037122;28;20172;-79
2021/04/15 03:56:54;;;;;;;8.80;8.00;;;;;;;;;;5035542;28;20557;-79
2021/04/15 03:59:37;;;;;;;7.50;6.83;;;;;;;;;;5036913;28;20172;-79
2021/04/15 04:02:05;;;;;;;8.00;7.30;;;;;;;;;;5036788;28;20187;-79
2021/04/15 04:04:36;;;;;;;8.33;7.63;;;;;;;;;;5036684;28;20618;-79
2021/04/15 04:07:04;;;;;;;7.43;6.73;;;;;;;;;;5036759;28;20176;-79
2021/04/15 04:09:31;;;;;;;8.63;7.70;;;;;;;;;;5036344;28;20172;-79
2021/04/15 04:11:58;;;;;;;8.80;7.90;;;;;;;;;;5036885;28;20176;-79
2021/04/15 04:14:31;;;;;;;8.90;7.73;;;;;;;;;;5036126;28;20176;-79
2021/04/15 04:17:09;;;;;;;8.57;7.77;;;;;;;;;;5036579;28;20166;-79
2021/04/15 04:19:41;;;;;;;9.17;8.20;;;;;;;;;;5036219;28;20168;-79
2021/04/15 04:22:19;;;;;;;9.60;8.17;;;;;;;;;;5036150;28;20176;-79
2021/04/15 04:25:01;;;;;;;9.43;7.93;;;;;;;;;;5035972;28;20200;-79
2021/04/15 04:27:29;;;;;;;8.67;7.60;;;;;;;;;;5036529;28;20614;-79
2021/04/15 04:30:12;;;;;;;9.90;7.53;;;;;;;;;;5036015;28;20180;-79
2021/04/15 04:32:38;;;;;;;8.27;6.73;;;;;;;;;;5036247;28;20650;-79
2021/04/15 04:35:06;;;;;;;8.90;7.67;;;;;;;;;;5036010;28;20173;-79
2021/04/15 04:37:39;;;;;;;8.73;7.67;;;;;;;;;;5035841;28;20176;-79
2021/04/15 04:40:06;;;;;;;7.80;7.00;;;;;;;;;;5035760;28;20204;-79
2021/04/15 04:42:47;;;;;;;8.00;6.97;;;;;;;;;;5045380;28;20207;-79
2021/04/15 04:45:16;;;;;;;9.60;7.73;;;;;;;;;;5060395;28;20223;-79
2021/04/15 04:47:44;;;;;;;7.30;6.60;;;;;;;;;;5060463;28;20160;-79
2021/04/15 04:50:13;;;;;;;8.47;7.37;;;;;;;;;;5040631;28;20181;-79
2021/04/15 04:52:39;;;;;;;7.70;7.00;;;;;;;;;;5039004;28;20173;-79
2021/04/15 04:55:11;;;;;;;8.37;7.43;;;;;;;;;;5037303;28;20607;-80
2021/04/15 04:57:38;;;;;;;6.97;6.27;;;;;;;;;;5035214;28;20173;-80
2021/04/15 05:00:06;;;;;;;12.57;11.20;;;;;;;;;;5035187;28;20616;-79
2021/04/15 05:02:31;;;;;;;11.57;10.37;;;;;;;;;;5035406;28;20195;-79
2021/04/15 05:05:00;;;;;;;11.77;9.37;;;;;;;;;;5034972;28;20213;-79
2021/04/15 05:07:27;;;;;;;11.47;9.50;;;;;;;;;;5035125;28;20583;-79
2021/04/15 05:09:52;;;;;;;12.33;10.60;;;;;;;;;;5035305;28;20177;-79
2021/04/15 05:12:20;;;;;;;7.93;7.13;;;;;;;;;;5035543;28;20267;-79
2021/04/15 05:14:45;;;;;;;10.20;8.10;;;;;;;;;;5034886;28;20667;-79
2021/04/15 05:17:26;;;;;;;8.50;7.70;;;;;;;;;;5035178;28;20204;-79
2021/04/15 05:19:52;;;;;;;8.90;7.77;;;;;;;;;;5035396;28;20624;-79
2021/04/15 05:22:33;;;;;;;8.20;7.40;;;;;;;;;;5034696;28;20180;-79
2021/04/15 05:25:00;;;;;;;6.27;5.77;;;;;;;;;;5035196;28;20204;-79
2021/04/15 05:27:26;;;;;;;7.70;6.90;;;;;;;;;;5035252;28;20176;-79
2021/04/15 05:29:59;;;;;;;7.17;6.47;;;;;;;;;;5034696;28;20577;-79
2021/04/15 05:32:25;;;;;;;7.50;6.80;;;;;;;;;;5035094;28;20233;-79
2021/04/15 05:34:52;;;;;;;7.77;6.80;;;;;;;;;;5034538;28;20180;-79
2021/04/15 05:37:19;;;;;;;8.57;7.07;;;;;;;;;;5034928;28;20183;-79
2021/04/15 05:39:45;;;;;;;9.00;6.57;;;;;;;;;;5034405;28;20231;-79
2021/04/15 05:42:29;;;;;;;32.50;22.17;;;;;;;;;;5034899;28;20173;-78
2021/04/15 05:44:58;;;;;;;34.47;27.27;;;;;;;;;;5034771;28;20327;-78
2021/04/15 05:47:31;;;;;;;85.17;50.93;;;;;;;;;;5035199;28;20172;-78
2021/04/15 05:49:59;;;;;;;19.53;11.33;;;;;;;;;;5034632;28;20252;-77
2021/04/15 05:52:37;;;;;;;21.00;10.87;;;;;;;;;;5034238;28;20169;-78
2021/04/15 05:55:06;;;;;;;23.77;16.70;;;;;;;;;;5034675;28;20176;-78
2021/04/15 05:57:35;;;;;;;65.10;36.50;;;;;;;;;;5034115;28;20619;-77
2021/04/15 06:00:06;;;;;;;27.37;12.63;;;;;;;;;;5032117;28;20180;-78
2021/04/15 06:02:44;;;;;;;11.83;7.90;;;;;;;;;;5033779;28;20195;-78
2021/04/15 06:05:09;;;;;;;8.57;7.63;;;;;;;;;;5027221;28;20208;-78
2021/04/15 06:07:37;;;;;;;21.97;14.83;;;;;;;;;;5033812;28;20534;-78
2021/04/15 06:10:03;;;;;;;38.07;16.60;;;;;;;;;;5033788;28;20176;-77
2021/04/15 06:12:51;;;;;;;28.50;13.87;;;;;;;;;;5029916;28;20263;-77
2021/04/15 06:15:29;;;;;;;16.87;12.43;;;;;;;;;;5032029;28;20239;-78
2021/04/15 06:18:01;;;;;;;18.13;15.13;;;;;;;;;;5034113;28;20169;-77
2021/04/15 06:20:28;;;;;;;15.30;8.60;;;;;;;;;;5033038;28;20619;-78
2021/04/15 06:22:57;;;;;;;11.50;7.40;;;;;;;;;;5033618;28;20187;-78
2021/04/15 06:25:26;;;;;;;18.07;8.33;;;;;;;;;;5033783;28;20208;-77
2021/04/15 06:27:52;;;;;;;6.20;5.60;;;;;;;;;;5033684;28;20619;-77
2021/04/15 06:30:20;;;;;;;19.70;16.10;;;;;;;;;;5033504;28;20179;-78
2021/04/15 06:32:53;;;;;;;8.77;7.37;;;;;;;;;;5033403;28;20180;-78
2021/04/15 06:35:21;;;;;;;18.93;9.80;;;;;;;;;;5029680;28;20253;-78
2021/04/15 06:37:49;;;;;;;18.77;10.87;;;;;;;;;;5032731;28;20180;-78
2021/04/15 06:40:51;;;;;;;11.60;8.37;;;;;;;;;;5033747;28;20188;-78
2021/04/15 06:43:35;;;;;;;16.17;10.43;;;;;;;;;;5033594;28;20354;-78
2021/04/15 06:46:03;;;;;;;7.97;7.13;;;;;;;;;;5033622;28;20245;-78
2021/04/15 06:48:40;;;;;;;7.43;6.60;;;;;;;;;;5033076;28;20260;-77
2021/04/15 06:51:25;;;;;;;8.13;6.63;;;;;;;;;;5030724;28;20175;-77
2021/04/15 06:53:56;;;;;;;8.47;7.10;;;;;;;;;;5032123;28;20176;-77
2021/04/15 06:56:39;;;;;;;8.63;6.87;;;;;;;;;;5033333;28;20223;-77
2021/04/15 06:59:07;;;;;;;6.53;5.83;;;;;;;;;;5033196;28;20164;-77
2021/04/15 07:01:51;;;;;;;8.50;7.57;;;;;;;;;;5028229;28;20234;-77
2021/04/15 07:04:19;;;;;;;8.17;7.37;;;;;;;;;;5032749;28;20582;-80
2021/04/15 07:07:03;;;;;;;9.87;8.50;;;;;;;;;;5033047;28;20179;-77
2021/04/15 07:09:41;;;;;;;9.80;7.83;;;;;;;;;;5033185;28;20172;-78
2021/04/15 07:12:25;;;;;;;9.57;8.53;;;;;;;;;;5033164;28;20551;-77
2021/04/15 07:15:00;;;;;;;10.33;9.33;;;;;;;;;;5032351;28;20188;-77
2021/04/15 07:17:41;;;;;;;13.60;12.17;;;;;;;;;;5032778;28;20674;-77
2021/04/15 07:20:25;;;;;;;15.93;10.20;;;;;;;;;;5032758;28;20259;-77
2021/04/15 07:23:08;;;;;;;23.13;14.20;;;;;;;;;;5032398;28;20255;-77
2021/04/15 07:25:51;;;;;;;13.87;8.67;;;;;;;;;;5029314;28;20555;-77
2021/04/15 07:28:18;;;;;;;14.63;9.70;;;;;;;;;;5032257;28;20513;-77
2021/04/15 07:30:55;;;;;;;15.37;10.13;;;;;;;;;;5033781;28;20608;-77
2021/04/15 07:33:21;;;;;;;10.07;8.70;;;;;;;;;;5034464;28;20274;-77
2021/04/15 07:36:10;;;;;;;9.50;8.03;;;;;;;;;;5036362;28;20212;-77
2021/04/15 07:38:41;;;;;;;11.47;7.47;;;;;;;;;;5036247;28;20232;-78
2021/04/15 07:41:22;;;;;;;12.30;9.30;;;;;;;;;;5036712;28;20241;-78
2021/04/15 07:43:57;;;;;;;12.87;10.77;;;;;;;;;;5036136;28;20177;-78
2021/04/15 07:46:41;;;;;;;14.03;11.23;;;;;;;;;;5036375;28;20183;-78
2021/04/15 07:49:06;;;;;;;10.17;9.17;;;;;;;;;;5034719;28;20234;-78
2021/04/15 07:51:39;;;;;;;9.50;8.60;;;;;;;;;;5035163;28;20180;-79
2021/04/15 07:54:16;;;;;;;9.10;8.27;;;;;;;;;;5034534;28;20179;-78
2021/04/15 07:57:00;;;;;;;11.03;8.60;;;;;;;;;;5034423;28;20211;-79
2021/04/15 07:59:34;;;;;;;7.70;7.00;;;;;;;;;;5034369;28;20180;-80
2021/04/15 08:02:14;;;;;;;8.00;7.30;;;;;;;;;;5033380;28;20615;-79
2021/04/15 08:04:59;;;;;;;6.50;5.90;;;;;;;;;;5033128;28;20269;-79
2021/04/15 08:07:30;;;;;;;9.07;8.17;;;;;;;;;;5033516;28;20238;-78
2021/04/15 08:09:57;;;;;;;6.70;6.17;;;;;;;;;;5034437;28;20200;-79
2021/04/15 08:12:28;;;;;;;8.10;7.30;;;;;;;;;;5035078;28;20623;-79
2021/04/15 08:15:06;;;;;;;7.27;6.57;;;;;;;;;;5036087;28;20204;-79
2021/04/15 08:17:51;;;;;;;6.97;6.27;;;;;;;;;;5036640;28;20176;-78
2021/04/15 08:20:35;;;;;;;6.03;5.53;;;;;;;;;;5035239;28;20545;-78
2021/04/15 08:23:11;;;;;;;7.83;7.03;;;;;;;;;;5035693;28;20268;-78
2021/04/15 08:25:48;;;;;;;12.17;10.03;;;;;;;;;;5035633;28;20188;-78
2021/04/15 08:28:28;;;;;;;7.13;6.20;;;;;;;;;;5035925;28;20176;-78
2021/04/15 08:30:54;;;;;;;6.07;5.47;;;;;;;;;;5035858;28;20176;-79
2021/04/15 08:33:37;;;;;;;8.87;7.30;;;;;;;;;;5035528;28;20225;-78
2021/04/15 08:36:29;;;;;;;7.70;7.00;;;;;;;;;;5036086;28;20685;-78
2021/04/15 08:39:02;;;;;;;8.40;7.60;;;;;;;;;;5034966;28;20251;-78
2021/04/15 08:41:28;;;;;;;7.63;6.40;;;;;;;;;;5035743;28;20176;-78
2021/04/15 08:44:12;;;;;;;7.97;7.17;;;;;;;;;;5035285;28;20177;-78
2021/04/15 08:46:56;;;;;;;7.77;6.60;;;;;;;;;;5035621;28;20260;-78
2021/04/15 08:49:24;;;;;;;9.60;8.43;;;;;;;;;;5035575;28;20291;-78
2021/04/15 08:51:52;;;;;;;12.37;10.37;;;;;;;;;;5035196;28;20172;-77
2021/04/15 08:54:31;;;;;;;10.30;9.20;;;;;;;;;;5035092;28;20219;-78
2021/04/15 08:57:24;;;;;;;9.53;7.20;;;;;;;;;;5035111;28;20176;-77
2021/04/15 09:00:07;;;;;;;8.70;7.93;;;;;;;;;;5027664;28;20192;-77
2021/04/15 09:02:51;;;;;;;6.87;6.03;;;;;;;;;;5035310;28;20638;-78
2021/04/15 09:05:22;;;;;;;12.77;11.33;;;;;;;;;;5035316;28;20204;-78
2021/04/15 09:08:00;;;;;;;21.10;17.60;;;;;;;;;;5034788;28;20188;-78
2021/04/15 09:10:31;;;;;;;7.40;6.70;;;;;;;;;;5034971;28;20148;-78
2021/04/15 09:13:15;;;;;;;11.70;10.33;;;;;;;;;;5034937;28;20238;-77
2021/04/15 09:15:52;;;;;;;6.23;5.63;;;;;;;;;;5035316;28;20222;-78
2021/04/15 09:18:26;;;;;;;9.17;8.27;;;;;;;;;;5034865;28;20176;-78
2021/04/15 09:21:10;;;;;;;10.30;9.30;;;;;;;;;;5035137;28;20172;-78
2021/04/15 09:23:36;;;;;;;16.17;14.00;;;;;;;;;;5034906;28;20169;-78
2021/04/15 09:26:01;;;;;;;32.37;23.13;;;;;;;;;;5034511;28;20604;-77
2021/04/15 09:28:26;;;;;;;45.20;38.57;;;;;;;;;;5034658;28;20164;-77
2021/04/15 09:30:59;;;;;;;25.07;22.77;;;;;;;;;;5034428;28;20259;-77
2021/04/15 09:33:28;;;;;;;11.37;10.27;;;;;;;;;;5031853;28;20187;-78
2021/04/15 09:36:07;;;;;;;12.23;11.13;;;;;;;;;;5034407;28;20231;-78
2021/04/15 09:38:42;;;;;;;13.20;12.10;;;;;;;;;;5034786;28;20264;-78
2021/04/15 09:41:18;;;;;;;21.43;19.43;;;;;;;;;;5034480;28;20226;-78
2021/04/15 09:43:43;;;;;;;13.27;12.07;;;;;;;;;;5034526;28;20618;-77
2021/04/15 09:46:19;;;;;;;8.53;7.73;;;;;;;;;;5034090;28;20200;-78
2021/04/15 09:49:03;;;;;;;8.30;7.50;;;;;;;;;;5034179;28;20590;-78
2021/04/15 09:51:37;;;;;;;8.60;7.80;;;;;;;;;;5031828;28;20271;-79
2021/04/15 09:54:23;;;;;;;13.10;11.90;;;;;;;;;;5033348;28;20190;-78
2021/04/15 09:56:51;;;;;;;9.30;8.50;;;;;;;;;;5031473;28;20188;-77
2021/04/15 09:59:23;;;;;;;10.40;9.40;;;;;;;;;;5042113;28;20159;-81
2021/04/15 10:01:51;;;;;;;9.50;8.60;;;;;;;;;;5056347;28;20560;-81
2021/04/15 10:04:17;;;;;;;9.27;8.37;;;;;;;;;;5058087;28;20212;-80
2021/04/15 10:06:45;;;;;;;15.97;13.83;;;;;;;;;;5053977;28;20200;-78
2021/04/15 10:09:29;;;;;;;20.80;13.87;;;;;;;;;;5038122;28;20176;-78
2021/04/15 10:12:11;;;;;;;22.57;14.83;;;;;;;;;;5037672;28;20187;-78
2021/04/15 10:15:10;;;;;;;15.03;11.73;;;;;;;;;;5035134;28;20619;-78
2021/04/15 10:17:45;;;;;;;15.40;13.80;;;;;;;;;;5031683;28;20192;-79
2021/04/15 10:20:20;;;;;;;11.67;10.47;;;;;;;;;;5032906;28;20641;-77
2021/04/15 10:23:04;;;;;;;8.67;7.73;;;;;;;;;;5032454;28;20184;-78
2021/04/15 10:25:31;;;;;;;10.07;8.97;;;;;;;;;;5033796;28;20199;-77
2021/04/15 10:28:08;;;;;;;7.50;6.80;;;;;;;;;;5032105;28;20612;-78
2021/04/15 10:30:34;;;;;;;6.77;6.17;;;;;;;;;;5032847;28;20184;-78
2021/04/15 10:33:14;;;;;;;9.43;8.50;;;;;;;;;;5033658;28;20175;-78
2021/04/15 10:35:45;;;;;;;7.33;6.63;;;;;;;;;;5033582;28;20496;-78
2021/04/15 10:38:11;;;;;;;6.90;6.30;;;;;;;;;;5034002;28;20231;-78
2021/04/15 10:40:36;;;;;;;6.90;6.30;;;;;;;;;;5031806;28;20208;-78
2021/04/15 10:43:30;;;;;;;10.50;7.97;;;;;;;;;;5033757;28;20631;-78
2021/04/15 10:45:55;;;;;;;11.23;10.10;;;;;;;;;;5033773;28;20196;-77
2021/04/15 10:48:20;;;;;;;8.07;7.30;;;;;;;;;;5032839;28;20176;-78
2021/04/15 10:51:06;;;;;;;11.23;10.03;;;;;;;;;;5033695;28;20673;-78
2021/04/15 10:53:44;;;;;;;10.23;8.80;;;;;;;;;;5033460;28;20180;-78
2021/04/15 10:56:11;;;;;;;9.70;8.70;;;;;;;;;;5032575;28;20183;-78
2021/04/15 10:58:45;;;;;;;9.47;8.17;;;;;;;;;;5032260;28;20180;-78
2021/04/15 11:01:32;;;;;;;7.27;6.57;;;;;;;;;;5033255;28;20256;-77
2021/04/15 11:04:01;;;;;;;6.40;5.80;;;;;;;;;;5033225;28;20198;-78
2021/04/15 11:06:44;;;;;;;6.97;6.37;;;;;;;;;;5035229;28;20214;-78
2021/04/15 11:09:28;;;;;;;11.47;9.37;;;;;;;;;;5037389;28;20177;-78
2021/04/15 11:12:01;;;;;;;9.13;8.23;;;;;;;;;;5037074;28;20176;-77
2021/04/15 11:14:27;;;;;;;7.90;7.10;;;;;;;;;;5036945;28;20688;-78
2021/04/15 11:16:54;;;;;;;8.50;7.60;;;;;;;;;;5036999;28;20172;-77
2021/04/15 11:19:23;;;;;;;6.73;6.20;;;;;;;;;;5037478;28;20176;-78
2021/04/15 11:21:51;;;;;;;6.80;6.20;;;;;;;;;;5036920;28;20263;-78
2021/04/15 11:24:28;;;;;;;6.77;6.17;;;;;;;;;;5037377;28;20212;-79
2021/04/15 11:27:03;;;;;;;6.27;5.67;;;;;;;;;;5036833;28;20265;-77
2021/04/15 11:29:29;;;;;;;6.93;6.30;;;;;;;;;;5036725;28;20522;-78
2021/04/15 11:31:54;;;;;;;7.60;6.80;;;;;;;;;;5036992;28;20180;-78
2021/04/15 11:34:22;;;;;;;9.10;8.20;;;;;;;;;;5037027;28;20303;-78
2021/04/15 11:36:57;;;;;;;7.30;6.70;;;;;;;;;;5036917;28;20627;-78
2021/04/15 11:39:24;;;;;;;11.27;10.17;;;;;;;;;;5035508;28;20224;-78
2021/04/15 11:41:52;;;;;;;7.77;6.90;;;;;;;;;;5036115;28;20188;-78
2021/04/15 11:44:23;;;;;;;9.13;7.77;;;;;;;;;;5036494;28;20243;-77
2021/04/15 11:46:50;;;;;;;27.23;15.10;;;;;;;;;;5036433;28;20615;-77
2021/04/15 11:49:19;;;;;;;11.57;8.90;;;;;;;;;;5036592;28;20627;-78
2021/04/15 11:52:04;;;;;;;11.13;9.47;;;;;;;;;;5033911;28;20262;-77
2021/04/15 11:54:34;;;;;;;8.20;7.40;;;;;;;;;;5033592;28;20244;-79
2021/04/15 11:57:18;;;;;;;8.67;7.77;;;;;;;;;;5034925;28;20649;-78
2021/04/15 11:59:43;;;;;;;7.90;7.20;;;;;;;;;;5034446;28;20169;-80
2021/04/15 12:02:13;;;;;;;6.67;6.07;;;;;;;;;;5034202;28;20271;-78
2021/04/15 12:04:39;;;;;;;6.70;6.03;;;;;;;;;;5034679;28;20200;-78
2021/04/15 12:07:25;;;;;;;13.47;12.07;;;;;;;;;;5034343;28;20208;-78
2021/04/15 12:09:51;;;;;;;13.30;11.53;;;;;;;;;;5034406;28;20239;-78
2021/04/15 12:12:33;;;;;;;9.90;8.90;;;;;;;;;;5034883;28;20651;-78
2021/04/15 12:15:00;;;;;;;12.10;10.90;;;;;;;;;;5036233;28;20188;-78
2021/04/15 12:17:40;;;;;;;8.33;7.53;;;;;;;;;;5034821;28;20173;-79
2021/04/15 12:20:11;;;;;;;8.67;7.80;;;;;;;;;;5035884;28;20627;-79
2021/04/15 12:22:40;;;;;;;10.60;9.50;;;;;;;;;;5036145;28;20193;-80
2021/04/15 12:25:05;;;;;;;10.00;9.00;;;;;;;;;;5034721;28;20211;-79
2021/04/15 12:27:32;;;;;;;9.87;8.87;;;;;;;;;;5036016;28;20173;-79
2021/04/15 12:30:03;;;;;;;17.00;13.77;;;;;;;;;;5036241;28;20208;-78
2021/04/15 12:32:33;;;;;;;11.20;10.10;;;;;;;;;;5035678;28;20526;-79
2021/04/15 12:35:17;;;;;;;10.93;9.83;;;;;;;;;;5035499;28;20184;-79
2021/04/15 12:38:03;;;;;;;9.20;8.30;;;;;;;;;;5033695;28;20196;-80
2021/04/15 12:40:34;;;;;;;8.63;7.83;;;;;;;;;;5035251;28;20675;-78
2021/04/15 12:43:04;;;;;;;7.97;7.27;;;;;;;;;;5015764;28;20620;-77
2021/04/15 12:45:32;;;;;;;7.63;6.93;;;;;;;;;;5032852;28;20216;-80
2021/04/15 12:47:58;;;;;;;18.37;12.47;;;;;;;;;;5034755;28;20175;-78
2021/04/15 12:50:25;;;;;;;12.33;8.50;;;;;;;;;;5034879;28;20586;-79
2021/04/15 12:52:50;;;;;;;31.53;23.60;;;;;;;;;;5035636;28;20177;-80
2021/04/15 12:55:17;;;;;;;8.23;7.43;;;;;;;;;;5035183;28;20502;-77
2021/04/15 12:57:43;;;;;;;8.53;7.03;;;;;;;;;;5035160;28;20172;-77
2021/04/15 13:00:10;;;;;;;10.47;9.00;;;;;;;;;;5035377;28;20173;-78
2021/04/15 13:02:36;;;;;;;11.63;10.37;;;;;;;;;;5034313;28;20180;-78
2021/04/15 13:05:10;;;;;;;11.50;10.30;;;;;;;;;;5035207;28;20555;-77
2021/04/15 13:07:39;;;;;;;31.60;18.37;;;;;;;;;;5035558;28;20642;-77
2021/04/15 13:10:14;;;;;;;40.37;25.03;;;;;;;;;;5035188;28;20173;-78
2021/04/15 13:12:40;;;;;;;14.03;11.50;;;;;;;;;;5035114;28;20641;-77
2021/04/15 13:15:07;;;;;;;8.23;7.30;;;;;;;;;;5034707;28;20177;-78
2021/04/15 13:17:36;;;;;;;8.50;7.70;;;;;;;;;;5035052;28;20265;-78
2021/04/15 13:20:04;;;;;;;9.63;8.67;;;;;;;;;;5034149;28;20526;-78
2021/04/15 13:22:32;;;;;;;14.27;11.27;;;;;;;;;;5032738;28;20168;-81
2021/04/15 13:24:58;;;;;;;18.73;16.07;;;;;;;;;;5031329;28;20211;-81
2021/04/15 13:27:32;;;;;;;47.83;28.57;;;;;;;;;;5030819;28;20176;-80
2021/04/15 13:30:16;;;;;;;25.83;16.80;;;;;;;;;;5031975;28;20180;-81
2021/04/15 13:33:08;;;;;;;14.40;10.83;;;;;;;;;;5032754;28;20177;-81
2021/04/15 13:35:38;;;;;;;11.73;10.40;;;;;;;;;;5031211;28;20191;-80
2021/04/15 13:38:22;;;;;;;13.87;11.33;;;;;;;;;;5032598;28;20692;-80
2021/04/15 13:40:51;;;;;;;11.73;10.40;;;;;;;;;;5032382;28;20242;-79
2021/04/15 13:43:32;;;;;;;11.93;10.07;;;;;;;;;;5033793;28;20657;-80
2021/04/15 13:46:21;;;;;;;13.50;11.00;;;;;;;;;;5033084;28;20235;-77
2021/04/15 13:49:00;;;;;;;15.30;11.60;;;;;;;;;;5033691;28;20268;-80
2021/04/15 13:51:25;;;;;;;12.07;10.47;;;;;;;;;;5032542;28;20567;-79
2021/04/15 13:53:56;;;;;;;12.70;10.37;;;;;;;;;;5033822;28;20203;-80
2021/04/15 13:56:30;;;;;;;10.90;9.73;;;;;;;;;;5034091;28;20259;-80
2021/04/15 13:58:56;;;;;;;12.17;10.13;;;;;;;;;;5034293;28;20251;-80
2021/04/15 14:01:31;;;;;;;12.63;10.40;;;;;;;;;;5033976;28;20200;-79
2021/04/15 14:03:56;;;;;;;9.87;8.87;;;;;;;;;;5034180;28;20196;-80
2021/04/15 14:06:24;;;;;;;8.13;7.43;;;;;;;;;;5033767;28;20259;-78
2021/04/15 14:09:09;;;;;;;8.73;7.83;;;;;;;;;;5034336;28;20168;-78
2021/04/15 14:11:36;;;;;;;9.47;8.47;;;;;;;;;;5034027;28;20584;-77
2021/04/15 14:14:05;;;;;;;8.80;8.00;;;;;;;;;;5033927;28;20169;-77
2021/04/15 14:16:30;;;;;;;11.90;10.57;;;;;;;;;;5032666;28;20175;-78
2021/04/15 14:19:06;;;;;;;17.93;15.27;;;;;;;;;;5031794;28;20168;-78
2021/04/15 14:21:33;;;;;;;21.20;16.53;;;;;;;;;;5033762;28;20165;-78
2021/04/15 14:24:00;;;;;;;19.47;15.63;;;;;;;;;;5033838;28;20168;-79
2021/04/15 14:26:28;;;;;;;22.27;16.37;;;;;;;;;;5033601;28;20254;-78
2021/04/15 14:29:05;;;;;;;28.90;18.93;;;;;;;;;;5034203;28;20204;-78
2021/04/15 14:31:33;;;;;;;27.30;17.30;;;;;;;;;;5032623;28;20638;-78
2021/04/15 14:33:59;;;;;;;20.83;15.60;;;;;;;;;;5032509;28;20176;-78
2021/04/15 14:36:27;;;;;;;18.07;13.83;;;;;;;;;;5033652;28;20641;-77
2021/04/15 14:38:53;;;;;;;16.93;13.33;;;;;;;;;;5033904;28;20307;-78
2021/04/15 14:41:29;;;;;;;26.17;16.13;;;;;;;;;;5032789;28;20228;-78
2021/04/15 14:43:55;;;;;;;23.13;16.67;;;;;;;;;;5033702;28;20165;-78
2021/04/15 14:46:21;;;;;;;25.43;18.00;;;;;;;;;;5033307;28;20655;-77
2021/04/15 14:48:47;;;;;;;22.60;17.17;;;;;;;;;;5033343;28;20172;-78
2021/04/15 14:51:14;;;;;;;22.50;15.33;;;;;;;;;;5033641;28;20168;-78
2021/04/15 14:53:41;;;;;;;20.03;15.67;;;;;;;;;;5033712;28;20180;-78
2021/04/15 14:56:10;;;;;;;15.50;13.33;;;;;;;;;;5032273;28;20200;-77
2021/04/15 14:58:36;;;;;;;18.73;14.77;;;;;;;;;;5033892;28;20168;-77
2021/04/15 15:01:04;;;;;;;19.03;14.27;;;;;;;;;;5056913;28;20157;-78
2021/04/15 15:03:36;;;;;;;20.23;15.47;;;;;;;;;;5057017;28;20200;-80